sensor_id;sensor_type;location;lat;lon;timestamp;P1;durP1;ratioP1;P2;durP2;ratioP2
78873;SDS011;68250;43.514;1.494;2024-01-30T00:01:41;11.80;;;4.77;;
78873;SDS011;68250;43.514;1.494;2024-01-30T00:04:07;14.23;;;5.13;;
78873;SDS011;68250;43.514;1.494;2024-01-30T00:06:32;10.33;;;4.33;;
78873;SDS011;68250;43.514;1.494;2024-01-30T00:08:58;11.93;;;4.57;;
78873;SDS011;68250;43.514;1.494;2024-01-30T00:11:23;10.93;;;5.07;;
78873;SDS011;68250;43.514;1.494;2024-01-30T00:13:51;14.13;;;5.03;;
78873;SDS011;68250;43.514;1.494;2024-01-30T00:16:22;11.38;;;5.00;;
78873;SDS011;68250;43.514;1.494;2024-01-30T00:18:51;11.27;;;4.75;;
78873;SDS011;68250;43.514;1.494;2024-01-30T00:21:18;11.65;;;4.65;;
78873;SDS011;68250;43.514;1.494;2024-01-30T00:23:45;12.55;;;5.05;;
78873;SDS011;68250;43.514;1.494;2024-01-30T00:26:10;12.67;;;4.70;;
78873;SDS011;68250;43.514;1.494;2024-01-30T00:28:42;13.18;;;5.10;;
78873;SDS011;68250;43.514;1.494;2024-01-30T00:31:08;11.27;;;5.07;;
78873;SDS011;68250;43.514;1.494;2024-01-30T00:33:37;16.85;;;5.57;;
78873;SDS011;68250;43.514;1.494;2024-01-30T00:36:04;12.25;;;4.82;;
78873;SDS011;68250;43.514;1.494;2024-01-30T00:38:31;16.77;;;4.88;;
78873;SDS011;68250;43.514;1.494;2024-01-30T00:40:57;13.82;;;5.32;;
78873;SDS011;68250;43.514;1.494;2024-01-30T00:43:22;13.03;;;5.10;;
78873;SDS011;68250;43.514;1.494;2024-01-30T00:45:49;10.18;;;4.85;;
78873;SDS011;68250;43.514;1.494;2024-01-30T00:48:17;13.20;;;4.82;;
78873;SDS011;68250;43.514;1.494;2024-01-30T00:50:42;13.40;;;5.23;;
78873;SDS011;68250;43.514;1.494;2024-01-30T00:53:08;13.02;;;4.97;;
78873;SDS011;68250;43.514;1.494;2024-01-30T00:55:34;12.67;;;4.73;;
78873;SDS011;68250;43.514;1.494;2024-01-30T00:58:00;11.68;;;5.10;;
78873;SDS011;68250;43.514;1.494;2024-01-30T01:00:26;14.43;;;5.27;;
78873;SDS011;68250;43.514;1.494;2024-01-30T01:02:54;13.68;;;5.30;;
78873;SDS011;68250;43.514;1.494;2024-01-30T01:05:20;18.25;;;6.25;;
78873;SDS011;68250;43.514;1.494;2024-01-30T01:07:46;11.97;;;4.50;;
78873;SDS011;68250;43.514;1.494;2024-01-30T01:10:15;14.32;;;6.40;;
78873;SDS011;68250;43.514;1.494;2024-01-30T01:12:44;14.20;;;5.10;;
78873;SDS011;68250;43.514;1.494;2024-01-30T01:15:10;19.92;;;6.60;;
78873;SDS011;68250;43.514;1.494;2024-01-30T01:17:36;15.38;;;5.57;;
78873;SDS011;68250;43.514;1.494;2024-01-30T01:20:02;11.93;;;5.27;;
78873;SDS011;68250;43.514;1.494;2024-01-30T01:22:29;12.23;;;5.28;;
78873;SDS011;68250;43.514;1.494;2024-01-30T01:24:55;11.65;;;4.47;;
78873;SDS011;68250;43.514;1.494;2024-01-30T01:27:21;12.37;;;4.47;;
78873;SDS011;68250;43.514;1.494;2024-01-30T01:29:46;13.02;;;5.32;;
78873;SDS011;68250;43.514;1.494;2024-01-30T01:32:12;15.67;;;6.90;;
78873;SDS011;68250;43.514;1.494;2024-01-30T01:34:38;13.48;;;5.18;;
78873;SDS011;68250;43.514;1.494;2024-01-30T01:37:03;12.83;;;4.87;;
78873;SDS011;68250;43.514;1.494;2024-01-30T01:39:29;18.25;;;7.78;;
78873;SDS011;68250;43.514;1.494;2024-01-30T01:41:55;13.23;;;5.03;;
78873;SDS011;68250;43.514;1.494;2024-01-30T01:44:20;12.52;;;4.60;;
78873;SDS011;68250;43.514;1.494;2024-01-30T01:46:46;13.37;;;4.63;;
78873;SDS011;68250;43.514;1.494;2024-01-30T01:49:13;13.50;;;5.00;;
78873;SDS011;68250;43.514;1.494;2024-01-30T01:51:39;14.20;;;4.63;;
78873;SDS011;68250;43.514;1.494;2024-01-30T01:54:06;11.27;;;4.60;;
78873;SDS011;68250;43.514;1.494;2024-01-30T01:56:32;13.57;;;4.50;;
78873;SDS011;68250;43.514;1.494;2024-01-30T01:59:04;11.93;;;4.63;;
78873;SDS011;68250;43.514;1.494;2024-01-30T02:01:32;11.95;;;4.45;;
78873;SDS011;68250;43.514;1.494;2024-01-30T02:03:59;13.88;;;4.78;;
78873;SDS011;68250;43.514;1.494;2024-01-30T02:06:25;12.38;;;4.40;;
78873;SDS011;68250;43.514;1.494;2024-01-30T02:08:51;12.05;;;4.72;;
78873;SDS011;68250;43.514;1.494;2024-01-30T02:11:17;11.73;;;3.78;;
78873;SDS011;68250;43.514;1.494;2024-01-30T02:13:43;10.57;;;3.90;;
78873;SDS011;68250;43.514;1.494;2024-01-30T02:16:09;11.07;;;4.00;;
78873;SDS011;68250;43.514;1.494;2024-01-30T02:18:35;15.55;;;5.00;;
78873;SDS011;68250;43.514;1.494;2024-01-30T02:21:07;12.98;;;4.30;;
78873;SDS011;68250;43.514;1.494;2024-01-30T02:23:33;13.63;;;4.40;;
78873;SDS011;68250;43.514;1.494;2024-01-30T02:25:59;13.75;;;4.38;;
78873;SDS011;68250;43.514;1.494;2024-01-30T02:28:25;11.52;;;4.65;;
78873;SDS011;68250;43.514;1.494;2024-01-30T02:30:52;12.20;;;4.40;;
78873;SDS011;68250;43.514;1.494;2024-01-30T02:33:18;11.73;;;5.00;;
78873;SDS011;68250;43.514;1.494;2024-01-30T02:35:44;15.20;;;4.70;;
78873;SDS011;68250;43.514;1.494;2024-01-30T02:38:09;13.23;;;4.20;;
78873;SDS011;68250;43.514;1.494;2024-01-30T02:40:35;13.45;;;4.53;;
78873;SDS011;68250;43.514;1.494;2024-01-30T02:43:01;14.57;;;4.77;;
78873;SDS011;68250;43.514;1.494;2024-01-30T02:45:27;12.30;;;4.38;;
78873;SDS011;68250;43.514;1.494;2024-01-30T02:47:53;12.40;;;4.50;;
78873;SDS011;68250;43.514;1.494;2024-01-30T02:50:19;15.23;;;4.57;;
78873;SDS011;68250;43.514;1.494;2024-01-30T02:52:45;14.63;;;4.10;;
78873;SDS011;68250;43.514;1.494;2024-01-30T02:55:11;13.17;;;4.20;;
78873;SDS011;68250;43.514;1.494;2024-01-30T02:57:37;13.48;;;4.32;;
78873;SDS011;68250;43.514;1.494;2024-01-30T03:00:03;11.55;;;4.10;;
78873;SDS011;68250;43.514;1.494;2024-01-30T03:02:31;13.25;;;4.32;;
78873;SDS011;68250;43.514;1.494;2024-01-30T03:04:57;14.03;;;3.90;;
78873;SDS011;68250;43.514;1.494;2024-01-30T03:07:23;12.05;;;4.40;;
78873;SDS011;68250;43.514;1.494;2024-01-30T03:09:49;14.05;;;4.40;;
78873;SDS011;68250;43.514;1.494;2024-01-30T03:12:14;15.67;;;3.93;;
78873;SDS011;68250;43.514;1.494;2024-01-30T03:14:40;14.70;;;4.47;;
78873;SDS011;68250;43.514;1.494;2024-01-30T03:17:06;13.13;;;4.32;;
78873;SDS011;68250;43.514;1.494;2024-01-30T03:19:31;16.97;;;4.20;;
78873;SDS011;68250;43.514;1.494;2024-01-30T03:21:57;14.63;;;3.80;;
78873;SDS011;68250;43.514;1.494;2024-01-30T03:24:23;12.00;;;4.05;;
78873;SDS011;68250;43.514;1.494;2024-01-30T03:26:49;16.90;;;4.37;;
78873;SDS011;68250;43.514;1.494;2024-01-30T03:29:15;13.27;;;4.30;;
78873;SDS011;68250;43.514;1.494;2024-01-30T03:31:40;12.63;;;4.20;;
78873;SDS011;68250;43.514;1.494;2024-01-30T03:34:06;10.35;;;3.97;;
78873;SDS011;68250;43.514;1.494;2024-01-30T03:36:32;10.70;;;3.73;;
78873;SDS011;68250;43.514;1.494;2024-01-30T03:38:59;15.75;;;3.80;;
78873;SDS011;68250;43.514;1.494;2024-01-30T03:41:25;12.35;;;3.80;;
78873;SDS011;68250;43.514;1.494;2024-01-30T03:43:51;10.77;;;3.90;;
78873;SDS011;68250;43.514;1.494;2024-01-30T03:46:17;14.00;;;4.20;;
78873;SDS011;68250;43.514;1.494;2024-01-30T03:48:42;16.35;;;4.30;;
78873;SDS011;68250;43.514;1.494;2024-01-30T03:51:08;11.57;;;4.27;;
78873;SDS011;68250;43.514;1.494;2024-01-30T03:53:34;10.05;;;4.10;;
78873;SDS011;68250;43.514;1.494;2024-01-30T03:56:00;13.98;;;4.00;;
78873;SDS011;68250;43.514;1.494;2024-01-30T03:58:26;13.03;;;3.90;;
78873;SDS011;68250;43.514;1.494;2024-01-30T04:00:51;11.25;;;4.15;;
78873;SDS011;68250;43.514;1.494;2024-01-30T04:03:17;16.13;;;3.80;;
78873;SDS011;68250;43.514;1.494;2024-01-30T04:05:43;13.13;;;3.88;;
78873;SDS011;68250;43.514;1.494;2024-01-30T04:08:09;13.07;;;3.90;;
78873;SDS011;68250;43.514;1.494;2024-01-30T04:10:35;11.52;;;4.18;;
78873;SDS011;68250;43.514;1.494;2024-01-30T04:13:00;8.97;;;3.83;;
78873;SDS011;68250;43.514;1.494;2024-01-30T04:15:26;11.48;;;3.75;;
78873;SDS011;68250;43.514;1.494;2024-01-30T04:17:52;9.47;;;4.17;;
78873;SDS011;68250;43.514;1.494;2024-01-30T04:20:17;12.77;;;3.92;;
78873;SDS011;68250;43.514;1.494;2024-01-30T04:22:46;13.07;;;3.87;;
78873;SDS011;68250;43.514;1.494;2024-01-30T04:25:13;9.82;;;3.70;;
78873;SDS011;68250;43.514;1.494;2024-01-30T04:27:39;12.55;;;3.45;;
78873;SDS011;68250;43.514;1.494;2024-01-30T04:30:04;9.43;;;3.90;;
78873;SDS011;68250;43.514;1.494;2024-01-30T04:32:31;13.57;;;4.22;;
78873;SDS011;68250;43.514;1.494;2024-01-30T04:34:57;14.63;;;4.05;;
78873;SDS011;68250;43.514;1.494;2024-01-30T04:37:23;12.17;;;3.67;;
78873;SDS011;68250;43.514;1.494;2024-01-30T04:39:48;11.60;;;3.72;;
78873;SDS011;68250;43.514;1.494;2024-01-30T04:42:14;10.00;;;3.83;;
78873;SDS011;68250;43.514;1.494;2024-01-30T04:44:40;13.80;;;3.85;;
78873;SDS011;68250;43.514;1.494;2024-01-30T04:47:05;13.13;;;3.93;;
78873;SDS011;68250;43.514;1.494;2024-01-30T04:49:34;13.85;;;3.92;;
78873;SDS011;68250;43.514;1.494;2024-01-30T04:52:00;11.50;;;3.63;;
78873;SDS011;68250;43.514;1.494;2024-01-30T04:54:26;17.42;;;4.18;;
78873;SDS011;68250;43.514;1.494;2024-01-30T04:56:51;12.68;;;3.80;;
78873;SDS011;68250;43.514;1.494;2024-01-30T04:59:17;12.20;;;3.77;;
78873;SDS011;68250;43.514;1.494;2024-01-30T05:01:43;13.38;;;4.00;;
78873;SDS011;68250;43.514;1.494;2024-01-30T05:04:09;12.65;;;4.20;;
78873;SDS011;68250;43.514;1.494;2024-01-30T05:06:35;13.55;;;4.80;;
78873;SDS011;68250;43.514;1.494;2024-01-30T05:09:00;12.85;;;3.90;;
78873;SDS011;68250;43.514;1.494;2024-01-30T05:11:26;11.50;;;3.90;;
78873;SDS011;68250;43.514;1.494;2024-01-30T05:13:52;12.95;;;3.90;;
78873;SDS011;68250;43.514;1.494;2024-01-30T05:16:17;13.40;;;3.80;;
78873;SDS011;68250;43.514;1.494;2024-01-30T05:18:43;11.03;;;3.90;;
78873;SDS011;68250;43.514;1.494;2024-01-30T05:21:10;12.90;;;4.13;;
78873;SDS011;68250;43.514;1.494;2024-01-30T05:23:35;14.45;;;3.95;;
78873;SDS011;68250;43.514;1.494;2024-01-30T05:26:01;11.40;;;3.40;;
78873;SDS011;68250;43.514;1.494;2024-01-30T05:28:28;10.02;;;3.75;;
78873;SDS011;68250;43.514;1.494;2024-01-30T05:30:55;12.52;;;3.70;;
78873;SDS011;68250;43.514;1.494;2024-01-30T05:33:21;11.20;;;3.70;;
78873;SDS011;68250;43.514;1.494;2024-01-30T05:35:47;12.97;;;4.00;;
78873;SDS011;68250;43.514;1.494;2024-01-30T05:38:13;10.77;;;3.70;;
78873;SDS011;68250;43.514;1.494;2024-01-30T05:40:40;15.30;;;4.03;;
78873;SDS011;68250;43.514;1.494;2024-01-30T05:43:06;13.23;;;4.03;;
78873;SDS011;68250;43.514;1.494;2024-01-30T05:45:33;13.70;;;3.67;;
78873;SDS011;68250;43.514;1.494;2024-01-30T05:48:00;14.07;;;4.47;;
78873;SDS011;68250;43.514;1.494;2024-01-30T05:50:26;16.77;;;4.30;;
78873;SDS011;68250;43.514;1.494;2024-01-30T05:52:52;10.98;;;3.75;;
78873;SDS011;68250;43.514;1.494;2024-01-30T05:55:18;11.45;;;4.13;;
78873;SDS011;68250;43.514;1.494;2024-01-30T05:57:44;9.63;;;3.53;;
78873;SDS011;68250;43.514;1.494;2024-01-30T06:00:09;10.00;;;3.53;;
78873;SDS011;68250;43.514;1.494;2024-01-30T06:02:36;11.10;;;4.05;;
78873;SDS011;68250;43.514;1.494;2024-01-30T06:05:01;13.85;;;4.00;;
78873;SDS011;68250;43.514;1.494;2024-01-30T06:07:27;12.77;;;4.07;;
78873;SDS011;68250;43.514;1.494;2024-01-30T06:09:53;13.82;;;4.05;;
78873;SDS011;68250;43.514;1.494;2024-01-30T06:12:19;13.50;;;3.70;;
78873;SDS011;68250;43.514;1.494;2024-01-30T06:14:44;10.77;;;3.75;;
78873;SDS011;68250;43.514;1.494;2024-01-30T06:17:10;13.80;;;4.00;;
78873;SDS011;68250;43.514;1.494;2024-01-30T06:19:37;17.50;;;3.97;;
78873;SDS011;68250;43.514;1.494;2024-01-30T06:22:05;13.88;;;3.60;;
78873;SDS011;68250;43.514;1.494;2024-01-30T06:24:31;12.52;;;4.10;;
78873;SDS011;68250;43.514;1.494;2024-01-30T06:26:57;14.33;;;3.70;;
78873;SDS011;68250;43.514;1.494;2024-01-30T06:29:22;10.32;;;3.70;;
78873;SDS011;68250;43.514;1.494;2024-01-30T06:31:50;14.00;;;4.00;;
78873;SDS011;68250;43.514;1.494;2024-01-30T06:34:16;13.82;;;4.00;;
78873;SDS011;68250;43.514;1.494;2024-01-30T06:36:41;12.00;;;3.53;;
78873;SDS011;68250;43.514;1.494;2024-01-30T06:39:07;16.40;;;4.73;;
78873;SDS011;68250;43.514;1.494;2024-01-30T06:41:33;11.45;;;3.92;;
78873;SDS011;68250;43.514;1.494;2024-01-30T06:43:58;13.43;;;4.13;;
78873;SDS011;68250;43.514;1.494;2024-01-30T06:46:24;20.65;;;5.07;;
78873;SDS011;68250;43.514;1.494;2024-01-30T06:48:50;12.13;;;4.63;;
78873;SDS011;68250;43.514;1.494;2024-01-30T06:51:15;14.77;;;4.47;;
78873;SDS011;68250;43.514;1.494;2024-01-30T06:53:41;16.53;;;5.37;;
78873;SDS011;68250;43.514;1.494;2024-01-30T06:56:07;10.80;;;3.90;;
78873;SDS011;68250;43.514;1.494;2024-01-30T06:58:33;12.52;;;4.15;;
78873;SDS011;68250;43.514;1.494;2024-01-30T07:00:59;12.80;;;4.05;;
78873;SDS011;68250;43.514;1.494;2024-01-30T07:03:24;14.23;;;3.90;;
78873;SDS011;68250;43.514;1.494;2024-01-30T07:05:50;15.57;;;4.20;;
78873;SDS011;68250;43.514;1.494;2024-01-30T07:08:16;11.40;;;4.23;;
78873;SDS011;68250;43.514;1.494;2024-01-30T07:10:43;12.15;;;4.05;;
78873;SDS011;68250;43.514;1.494;2024-01-30T07:13:09;11.73;;;4.20;;
78873;SDS011;68250;43.514;1.494;2024-01-30T07:15:36;10.52;;;3.97;;
78873;SDS011;68250;43.514;1.494;2024-01-30T07:18:05;13.20;;;3.60;;
78873;SDS011;68250;43.514;1.494;2024-01-30T07:20:31;14.68;;;4.00;;
78873;SDS011;68250;43.514;1.494;2024-01-30T07:23:00;17.30;;;4.38;;
78873;SDS011;68250;43.514;1.494;2024-01-30T07:25:25;17.55;;;4.53;;
78873;SDS011;68250;43.514;1.494;2024-01-30T07:27:55;15.05;;;3.92;;
78873;SDS011;68250;43.514;1.494;2024-01-30T07:30:21;15.20;;;4.33;;
78873;SDS011;68250;43.514;1.494;2024-01-30T07:32:48;13.70;;;4.38;;
78873;SDS011;68250;43.514;1.494;2024-01-30T07:35:14;14.90;;;3.83;;
78873;SDS011;68250;43.514;1.494;2024-01-30T07:37:39;11.87;;;4.00;;
78873;SDS011;68250;43.514;1.494;2024-01-30T07:40:05;14.50;;;3.80;;
78873;SDS011;68250;43.514;1.494;2024-01-30T07:42:32;12.77;;;3.95;;
78873;SDS011;68250;43.514;1.494;2024-01-30T07:44:58;13.43;;;4.10;;
78873;SDS011;68250;43.514;1.494;2024-01-30T07:47:24;14.57;;;3.75;;
78873;SDS011;68250;43.514;1.494;2024-01-30T07:49:50;13.73;;;3.80;;
78873;SDS011;68250;43.514;1.494;2024-01-30T07:52:16;11.55;;;3.97;;
78873;SDS011;68250;43.514;1.494;2024-01-30T07:54:42;12.95;;;3.83;;
78873;SDS011;68250;43.514;1.494;2024-01-30T07:57:39;10.88;;;4.50;;
78873;SDS011;68250;43.514;1.494;2024-01-30T08:00:05;11.37;;;3.87;;
78873;SDS011;68250;43.514;1.494;2024-01-30T08:02:32;13.57;;;4.20;;
78873;SDS011;68250;43.514;1.494;2024-01-30T08:04:58;10.60;;;3.65;;
78873;SDS011;68250;43.514;1.494;2024-01-30T08:07:23;21.95;;;6.20;;
78873;SDS011;68250;43.514;1.494;2024-01-30T08:09:49;16.95;;;4.47;;
78873;SDS011;68250;43.514;1.494;2024-01-30T08:12:15;15.17;;;4.20;;
78873;SDS011;68250;43.514;1.494;2024-01-30T08:14:41;20.45;;;6.30;;
78873;SDS011;68250;43.514;1.494;2024-01-30T08:17:07;18.23;;;5.50;;
78873;SDS011;68250;43.514;1.494;2024-01-30T08:19:33;15.00;;;4.03;;
78873;SDS011;68250;43.514;1.494;2024-01-30T08:21:58;13.00;;;3.63;;
78873;SDS011;68250;43.514;1.494;2024-01-30T08:24:24;12.50;;;4.07;;
78873;SDS011;68250;43.514;1.494;2024-01-30T08:26:50;15.50;;;4.27;;
78873;SDS011;68250;43.514;1.494;2024-01-30T08:29:16;22.48;;;6.88;;
78873;SDS011;68250;43.514;1.494;2024-01-30T08:31:41;14.23;;;4.70;;
78873;SDS011;68250;43.514;1.494;2024-01-30T08:34:07;14.75;;;4.43;;
78873;SDS011;68250;43.514;1.494;2024-01-30T08:36:33;15.03;;;4.10;;
78873;SDS011;68250;43.514;1.494;2024-01-30T08:38:58;12.88;;;4.15;;
78873;SDS011;68250;43.514;1.494;2024-01-30T08:41:24;13.03;;;3.70;;
78873;SDS011;68250;43.514;1.494;2024-01-30T08:43:50;12.32;;;3.63;;
78873;SDS011;68250;43.514;1.494;2024-01-30T08:46:18;18.80;;;3.60;;
78873;SDS011;68250;43.514;1.494;2024-01-30T08:48:44;13.68;;;5.03;;
78873;SDS011;68250;43.514;1.494;2024-01-30T08:51:10;15.43;;;3.90;;
78873;SDS011;68250;43.514;1.494;2024-01-30T08:53:36;17.30;;;4.60;;
78873;SDS011;68250;43.514;1.494;2024-01-30T08:56:02;15.37;;;3.83;;
78873;SDS011;68250;43.514;1.494;2024-01-30T08:58:28;12.43;;;3.00;;
78873;SDS011;68250;43.514;1.494;2024-01-30T09:00:54;18.42;;;4.20;;
78873;SDS011;68250;43.514;1.494;2024-01-30T09:03:19;11.80;;;3.67;;
78873;SDS011;68250;43.514;1.494;2024-01-30T09:05:45;11.93;;;3.83;;
78873;SDS011;68250;43.514;1.494;2024-01-30T09:08:11;14.30;;;3.43;;
78873;SDS011;68250;43.514;1.494;2024-01-30T09:10:36;11.55;;;3.75;;
78873;SDS011;68250;43.514;1.494;2024-01-30T09:13:02;17.93;;;5.03;;
78873;SDS011;68250;43.514;1.494;2024-01-30T09:15:28;10.48;;;3.55;;
78873;SDS011;68250;43.514;1.494;2024-01-30T09:17:54;12.90;;;3.30;;
78873;SDS011;68250;43.514;1.494;2024-01-30T09:20:19;13.60;;;3.77;;
78873;SDS011;68250;43.514;1.494;2024-01-30T09:22:47;12.48;;;3.47;;
78873;SDS011;68250;43.514;1.494;2024-01-30T09:25:14;11.73;;;3.10;;
78873;SDS011;68250;43.514;1.494;2024-01-30T09:27:39;11.05;;;3.55;;
78873;SDS011;68250;43.514;1.494;2024-01-30T09:30:05;8.38;;;2.83;;
78873;SDS011;68250;43.514;1.494;2024-01-30T09:32:32;13.68;;;3.60;;
78873;SDS011;68250;43.514;1.494;2024-01-30T09:34:58;11.00;;;3.70;;
78873;SDS011;68250;43.514;1.494;2024-01-30T09:37:23;12.50;;;3.20;;
78873;SDS011;68250;43.514;1.494;2024-01-30T09:39:49;12.77;;;3.20;;
78873;SDS011;68250;43.514;1.494;2024-01-30T09:42:21;9.40;;;3.20;;
78873;SDS011;68250;43.514;1.494;2024-01-30T09:44:53;11.80;;;3.20;;
78873;SDS011;68250;43.514;1.494;2024-01-30T09:47:19;14.50;;;4.20;;
78873;SDS011;68250;43.514;1.494;2024-01-30T09:49:45;12.48;;;3.22;;
78873;SDS011;68250;43.514;1.494;2024-01-30T09:52:11;8.63;;;2.80;;
78873;SDS011;68250;43.514;1.494;2024-01-30T09:54:37;12.20;;;3.63;;
78873;SDS011;68250;43.514;1.494;2024-01-30T09:57:04;12.68;;;3.20;;
78873;SDS011;68250;43.514;1.494;2024-01-30T09:59:30;11.82;;;3.30;;
78873;SDS011;68250;43.514;1.494;2024-01-30T10:01:57;10.10;;;3.17;;
78873;SDS011;68250;43.514;1.494;2024-01-30T10:04:23;10.48;;;3.03;;
78873;SDS011;68250;43.514;1.494;2024-01-30T10:06:48;9.75;;;3.20;;
78873;SDS011;68250;43.514;1.494;2024-01-30T10:09:14;11.40;;;3.08;;
78873;SDS011;68250;43.514;1.494;2024-01-30T10:11:40;12.75;;;3.35;;
78873;SDS011;68250;43.514;1.494;2024-01-30T10:14:06;10.07;;;3.10;;
78873;SDS011;68250;43.514;1.494;2024-01-30T10:16:31;16.23;;;3.78;;
78873;SDS011;68250;43.514;1.494;2024-01-30T10:18:57;12.97;;;3.57;;
78873;SDS011;68250;43.514;1.494;2024-01-30T10:21:23;16.67;;;5.40;;
78873;SDS011;68250;43.514;1.494;2024-01-30T10:23:49;25.52;;;8.93;;
78873;SDS011;68250;43.514;1.494;2024-01-30T10:26:18;12.13;;;3.97;;
78873;SDS011;68250;43.514;1.494;2024-01-30T10:28:43;13.88;;;4.95;;
78873;SDS011;68250;43.514;1.494;2024-01-30T10:31:09;10.80;;;3.30;;
78873;SDS011;68250;43.514;1.494;2024-01-30T10:33:35;13.30;;;3.97;;
78873;SDS011;68250;43.514;1.494;2024-01-30T10:36:04;12.80;;;3.72;;
78873;SDS011;68250;43.514;1.494;2024-01-30T10:38:31;12.68;;;3.17;;
78873;SDS011;68250;43.514;1.494;2024-01-30T10:40:58;14.67;;;4.90;;
78873;SDS011;68250;43.514;1.494;2024-01-30T10:43:30;13.73;;;4.35;;
78873;SDS011;68250;43.514;1.494;2024-01-30T10:45:57;12.70;;;3.50;;
78873;SDS011;68250;43.514;1.494;2024-01-30T10:48:30;14.20;;;3.05;;
78873;SDS011;68250;43.514;1.494;2024-01-30T10:50:56;7.75;;;3.10;;
78873;SDS011;68250;43.514;1.494;2024-01-30T10:53:22;11.10;;;3.13;;
78873;SDS011;68250;43.514;1.494;2024-01-30T10:55:49;11.30;;;3.10;;
78873;SDS011;68250;43.514;1.494;2024-01-30T10:58:16;11.43;;;3.10;;
78873;SDS011;68250;43.514;1.494;2024-01-30T11:00:43;14.40;;;3.30;;
78873;SDS011;68250;43.514;1.494;2024-01-30T11:03:08;12.43;;;3.07;;
78873;SDS011;68250;43.514;1.494;2024-01-30T11:05:34;9.75;;;2.90;;
78873;SDS011;68250;43.514;1.494;2024-01-30T11:08:10;12.23;;;3.23;;
78873;SDS011;68250;43.514;1.494;2024-01-30T11:10:47;10.63;;;3.08;;
78873;SDS011;68250;43.514;1.494;2024-01-30T11:13:13;13.55;;;3.58;;
78873;SDS011;68250;43.514;1.494;2024-01-30T11:15:39;10.52;;;3.10;;
78873;SDS011;68250;43.514;1.494;2024-01-30T11:18:05;11.10;;;3.03;;
78873;SDS011;68250;43.514;1.494;2024-01-30T11:20:31;10.30;;;3.30;;
78873;SDS011;68250;43.514;1.494;2024-01-30T11:22:58;8.70;;;2.90;;
78873;SDS011;68250;43.514;1.494;2024-01-30T11:25:24;13.60;;;3.15;;
78873;SDS011;68250;43.514;1.494;2024-01-30T11:27:51;10.83;;;3.13;;
78873;SDS011;68250;43.514;1.494;2024-01-30T11:35:33;8.30;;;3.30;;
78873;SDS011;68250;43.514;1.494;2024-01-30T11:38:00;15.05;;;3.80;;
78873;SDS011;68250;43.514;1.494;2024-01-30T11:40:30;13.77;;;3.23;;
78873;SDS011;68250;43.514;1.494;2024-01-30T11:42:56;11.30;;;3.42;;
78873;SDS011;68250;43.514;1.494;2024-01-30T11:45:23;10.55;;;3.80;;
78873;SDS011;68250;43.514;1.494;2024-01-30T11:47:49;12.95;;;3.30;;
78873;SDS011;68250;43.514;1.494;2024-01-30T11:50:15;12.87;;;3.17;;
78873;SDS011;68250;43.514;1.494;2024-01-30T11:52:41;10.95;;;3.00;;
78873;SDS011;68250;43.514;1.494;2024-01-30T11:55:08;8.60;;;2.47;;
78873;SDS011;68250;43.514;1.494;2024-01-30T11:57:34;10.55;;;2.50;;
78873;SDS011;68250;43.514;1.494;2024-01-30T12:00:02;8.52;;;2.50;;
78873;SDS011;68250;43.514;1.494;2024-01-30T12:02:38;10.30;;;2.57;;
78873;SDS011;68250;43.514;1.494;2024-01-30T12:05:05;11.57;;;2.78;;
78873;SDS011;68250;43.514;1.494;2024-01-30T12:07:31;8.93;;;2.60;;
78873;SDS011;68250;43.514;1.494;2024-01-30T12:09:57;10.88;;;2.60;;
78873;SDS011;68250;43.514;1.494;2024-01-30T12:12:24;10.10;;;2.60;;
78873;SDS011;68250;43.514;1.494;2024-01-30T12:14:50;10.57;;;2.47;;
78873;SDS011;68250;43.514;1.494;2024-01-30T12:17:29;7.53;;;2.42;;
78873;SDS011;68250;43.514;1.494;2024-01-30T12:20:05;9.98;;;2.25;;
78873;SDS011;68250;43.514;1.494;2024-01-30T12:22:33;13.52;;;2.72;;
78873;SDS011;68250;43.514;1.494;2024-01-30T12:25:11;9.52;;;2.90;;
78873;SDS011;68250;43.514;1.494;2024-01-30T12:27:38;11.75;;;2.80;;
78873;SDS011;68250;43.514;1.494;2024-01-30T12:30:07;9.70;;;2.92;;
78873;SDS011;68250;43.514;1.494;2024-01-30T12:32:41;8.15;;;2.30;;
78873;SDS011;68250;43.514;1.494;2024-01-30T12:35:18;11.60;;;2.70;;
78873;SDS011;68250;43.514;1.494;2024-01-30T12:37:45;9.02;;;2.80;;
78873;SDS011;68250;43.514;1.494;2024-01-30T12:40:11;13.45;;;3.00;;
78873;SDS011;68250;43.514;1.494;2024-01-30T12:42:39;10.90;;;3.25;;
78873;SDS011;68250;43.514;1.494;2024-01-30T12:45:08;11.63;;;2.78;;
78873;SDS011;68250;43.514;1.494;2024-01-30T12:47:34;11.30;;;2.63;;
78873;SDS011;68250;43.514;1.494;2024-01-30T12:49:59;10.55;;;2.97;;
78873;SDS011;68250;43.514;1.494;2024-01-30T12:52:25;7.20;;;2.23;;
78873;SDS011;68250;43.514;1.494;2024-01-30T12:54:51;13.48;;;3.25;;
78873;SDS011;68250;43.514;1.494;2024-01-30T12:57:17;10.45;;;2.70;;
78873;SDS011;68250;43.514;1.494;2024-01-30T12:59:44;11.65;;;2.50;;
78873;SDS011;68250;43.514;1.494;2024-01-30T13:02:10;9.57;;;2.50;;
78873;SDS011;68250;43.514;1.494;2024-01-30T13:04:35;9.10;;;2.17;;
78873;SDS011;68250;43.514;1.494;2024-01-30T13:07:01;11.85;;;2.70;;
78873;SDS011;68250;43.514;1.494;2024-01-30T13:09:29;8.57;;;2.37;;
78873;SDS011;68250;43.514;1.494;2024-01-30T13:11:55;14.10;;;2.58;;
78873;SDS011;68250;43.514;1.494;2024-01-30T13:14:21;10.65;;;2.42;;
78873;SDS011;68250;43.514;1.494;2024-01-30T13:16:47;11.30;;;2.70;;
78873;SDS011;68250;43.514;1.494;2024-01-30T13:19:12;8.32;;;2.70;;
78873;SDS011;68250;43.514;1.494;2024-01-30T13:21:38;9.83;;;2.50;;
78873;SDS011;68250;43.514;1.494;2024-01-30T13:24:04;9.98;;;2.53;;
78873;SDS011;68250;43.514;1.494;2024-01-30T13:26:31;8.52;;;3.08;;
78873;SDS011;68250;43.514;1.494;2024-01-30T13:28:58;8.65;;;2.47;;
78873;SDS011;68250;43.514;1.494;2024-01-30T13:31:26;9.13;;;2.80;;
78873;SDS011;68250;43.514;1.494;2024-01-30T13:33:52;10.02;;;2.90;;
78873;SDS011;68250;43.514;1.494;2024-01-30T13:36:18;8.48;;;3.00;;
78873;SDS011;68250;43.514;1.494;2024-01-30T13:38:44;7.22;;;2.50;;
78873;SDS011;68250;43.514;1.494;2024-01-30T13:41:10;7.43;;;2.70;;
78873;SDS011;68250;43.514;1.494;2024-01-30T13:43:35;9.85;;;2.90;;
78873;SDS011;68250;43.514;1.494;2024-01-30T13:46:01;10.27;;;3.33;;
78873;SDS011;68250;43.514;1.494;2024-01-30T13:48:27;7.32;;;2.47;;
78873;SDS011;68250;43.514;1.494;2024-01-30T13:50:53;7.07;;;2.47;;
78873;SDS011;68250;43.514;1.494;2024-01-30T13:53:19;12.05;;;2.55;;
78873;SDS011;68250;43.514;1.494;2024-01-30T13:55:44;9.13;;;2.42;;
78873;SDS011;68250;43.514;1.494;2024-01-30T13:58:10;8.30;;;2.70;;
78873;SDS011;68250;43.514;1.494;2024-01-30T14:00:36;9.90;;;2.58;;
78873;SDS011;68250;43.514;1.494;2024-01-30T14:03:02;10.53;;;2.97;;
78873;SDS011;68250;43.514;1.494;2024-01-30T14:05:28;10.07;;;2.70;;
78873;SDS011;68250;43.514;1.494;2024-01-30T14:07:54;9.73;;;2.43;;
78873;SDS011;68250;43.514;1.494;2024-01-30T14:10:20;12.00;;;2.40;;
78873;SDS011;68250;43.514;1.494;2024-01-30T14:12:45;10.35;;;2.35;;
78873;SDS011;68250;43.514;1.494;2024-01-30T14:15:13;7.77;;;2.03;;
78873;SDS011;68250;43.514;1.494;2024-01-30T14:17:40;8.05;;;2.40;;
78873;SDS011;68250;43.514;1.494;2024-01-30T14:20:06;10.45;;;2.38;;
78873;SDS011;68250;43.514;1.494;2024-01-30T14:22:33;9.63;;;2.60;;
78873;SDS011;68250;43.514;1.494;2024-01-30T14:25:02;9.38;;;2.30;;
78873;SDS011;68250;43.514;1.494;2024-01-30T14:27:31;10.67;;;2.73;;
78873;SDS011;68250;43.514;1.494;2024-01-30T14:29:57;7.95;;;2.50;;
78873;SDS011;68250;43.514;1.494;2024-01-30T14:32:23;10.38;;;2.72;;
78873;SDS011;68250;43.514;1.494;2024-01-30T14:34:49;10.57;;;2.42;;
78873;SDS011;68250;43.514;1.494;2024-01-30T14:37:18;8.88;;;2.55;;